createdAt,value
2023-02-25T00:00:19.256Z,93.00
2023-02-25T00:01:22.696Z,91.48
2023-02-25T00:02:24.432Z,91.15
2023-02-25T00:03:26.084Z,89.50
2023-02-25T00:04:28.715Z,89.14
2023-02-25T00:05:31.856Z,89.37
2023-02-25T00:06:33.619Z,88.39
2023-02-25T00:07:35.212Z,89.40
2023-02-25T00:08:36.795Z,89.49
2023-02-25T00:09:38.392Z,89.29
2023-02-25T00:10:39.938Z,89.82
2023-02-25T00:11:41.483Z,89.74
2023-02-25T00:12:43.895Z,90.28
2023-02-25T00:13:45.969Z,90.08
2023-02-25T00:14:47.543Z,89.98
2023-02-25T00:15:49.055Z,90.46
2023-02-25T00:16:51.032Z,89.69
2023-02-25T00:17:52.644Z,89.68
2023-02-25T00:18:57.821Z,88.48
2023-02-25T00:20:00.565Z,88.96
2023-02-25T00:21:06.265Z,88.38
2023-02-25T00:22:07.809Z,87.33
2023-02-25T00:23:09.354Z,87.39
2023-02-25T00:24:16.505Z,87.00
2023-02-25T00:25:18.825Z,86.34
2023-02-25T00:26:21.879Z,86.16
2023-02-25T00:27:24.722Z,86.67
2023-02-25T00:28:27.102Z,85.13
2023-02-25T00:29:28.834Z,85.85
2023-02-25T00:30:30.394Z,85.86
2023-02-25T00:31:32.712Z,86.27
2023-02-25T00:32:34.454Z,86.47
2023-02-25T00:33:36.242Z,87.07
2023-02-25T00:34:37.772Z,87.49
2023-02-25T00:35:40.983Z,88.08
2023-02-25T00:36:42.574Z,87.28
2023-02-25T00:37:44.176Z,88.18
2023-02-25T00:38:50.186Z,88.50
2023-02-25T00:39:51.776Z,87.25
2023-02-25T00:40:53.334Z,87.94
2023-02-25T00:41:54.850Z,88.65
2023-02-25T00:42:56.398Z,90.34
2023-02-25T00:44:00.036Z,89.51
2023-02-25T00:45:01.620Z,89.97
2023-02-25T00:46:03.216Z,91.06
2023-02-25T00:47:05.269Z,90.35
2023-02-25T00:48:07.660Z,91.50
2023-02-25T00:49:09.205Z,91.88
2023-02-25T00:50:11.509Z,92.44
2023-02-25T00:51:19.560Z,92.47
2023-02-25T00:52:21.186Z,91.55
2023-02-25T00:53:22.775Z,91.67
2023-02-25T00:54:24.616Z,91.93
2023-02-25T00:55:33.363Z,91.56
2023-02-25T00:56:35.084Z,92.39
2023-02-25T00:57:36.626Z,93.31
2023-02-25T00:58:38.788Z,92.60
2023-02-25T00:59:40.347Z,93.47
2023-02-25T01:00:51.483Z,93.46
2023-02-25T01:01:53.499Z,93.71
2023-02-25T01:02:57.695Z,93.33
2023-02-25T01:04:01.347Z,93.22
2023-02-25T01:05:03.644Z,92.76
2023-02-25T01:06:08.419Z,92.74
2023-02-25T01:07:11.329Z,92.14
2023-02-25T01:08:12.864Z,91.96
2023-02-25T01:09:14.504Z,93.35
2023-02-25T01:10:16.438Z,93.91
2023-02-25T01:11:27.740Z,93.68
2023-02-25T01:12:30.259Z,93.09
2023-02-25T01:13:31.853Z,92.24
2023-02-25T01:14:33.422Z,91.67
2023-02-25T01:15:35.201Z,91.49
2023-02-25T01:16:37.310Z,91.13
2023-02-25T01:17:39.030Z,92.05
2023-02-25T01:18:40.761Z,92.04
2023-02-25T01:19:42.324Z,92.81
2023-02-25T01:20:43.839Z,93.39
2023-02-25T01:21:47.338Z,93.92
2023-02-25T01:22:48.954Z,94.15
2023-02-25T01:23:50.462Z,96.45
2023-02-25T01:24:54.959Z,96.93
2023-02-25T01:25:56.487Z,97.30
2023-02-25T01:27:01.310Z,96.98
2023-02-25T01:28:02.892Z,97.12
2023-02-25T01:29:09.075Z,96.11
2023-02-25T01:30:12.674Z,97.54
2023-02-25T01:31:29.524Z,98.41
2023-02-25T01:32:31.587Z,97.36
2023-02-25T01:33:33.267Z,97.56
2023-02-25T01:34:35.360Z,96.05
2023-02-25T01:35:37.026Z,96.21
2023-02-25T01:36:38.551Z,96.29
2023-02-25T01:37:40.666Z,97.73
2023-02-25T01:38:42.242Z,98.42
2023-02-25T01:39:43.803Z,98.96
2023-02-25T01:40:45.330Z,99.46
2023-02-25T01:41:48.847Z,99.00
2023-02-25T01:42:50.621Z,98.74
2023-02-25T01:44:14.083Z,99.83
2023-02-25T01:45:19.079Z,100.00
2023-02-25T01:46:21.035Z,100.00
2023-02-25T01:47:22.915Z,100.00
2023-02-25T01:48:29.220Z,100.00
2023-02-25T01:49:33.023Z,100.00
2023-02-25T01:50:58.684Z,100.00
2023-02-25T01:52:17.028Z,100.00
2023-02-25T01:53:24.492Z,100.00
2023-02-25T01:54:26.173Z,100.00
2023-02-25T01:55:28.036Z,100.00
2023-02-25T01:56:31.454Z,100.00
2023-02-25T01:57:32.997Z,100.00
2023-02-25T01:58:35.076Z,100.00
2023-02-25T01:59:39.134Z,100.00
2023-02-25T02:00:40.990Z,100.00
2023-02-25T02:01:43.702Z,100.00
2023-02-25T02:02:49.363Z,99.82
2023-02-25T02:03:52.277Z,99.86
2023-02-25T02:04:54.878Z,100.00
2023-02-25T02:06:02.575Z,100.00
2023-02-25T02:07:04.409Z,100.00
2023-02-25T02:08:06.348Z,100.00
2023-02-25T02:09:13.339Z,99.55
2023-02-25T02:10:14.900Z,99.68
2023-02-25T02:11:17.087Z,99.87
2023-02-25T02:12:18.690Z,98.72
2023-02-25T02:13:20.459Z,98.08
2023-02-25T02:14:27.383Z,98.24
2023-02-25T02:15:34.222Z,98.12
2023-02-25T02:16:53.439Z,96.94
2023-02-25T02:18:03.328Z,96.13
2023-02-25T02:19:50.465Z,96.40
2023-02-25T02:21:17.871Z,95.87
2023-02-25T02:22:43.953Z,97.13
2023-02-25T02:24:03.839Z,98.45
2023-02-25T02:25:08.087Z,96.62
2023-02-25T02:26:28.981Z,95.08
2023-02-25T02:27:56.779Z,93.74
2023-02-25T02:29:16.793Z,93.48
2023-02-25T02:30:35.061Z,92.93
2023-02-25T02:31:36.630Z,92.37
2023-02-25T02:32:47.894Z,92.18
2023-02-25T02:33:58.323Z,92.43
2023-02-25T02:35:20.731Z,92.67
2023-02-25T02:36:46.707Z,92.44
2023-02-25T02:38:13.128Z,92.04
2023-02-25T02:39:26.487Z,92.77
2023-02-25T02:40:54.637Z,92.01
2023-02-25T02:42:28.527Z,92.55
2023-02-25T02:44:12.309Z,93.05
2023-02-25T02:45:23.866Z,94.93
2023-02-25T02:46:39.526Z,96.48
2023-02-25T02:47:45.652Z,97.08
2023-02-25T02:48:54.459Z,99.40
2023-02-25T02:50:31.754Z,100.00
2023-02-25T02:51:43.610Z,100.00
2023-02-25T02:52:51.363Z,100.00
2023-02-25T02:53:57.386Z,100.00
2023-02-25T02:55:13.717Z,100.00
2023-02-25T02:56:19.160Z,100.00
2023-02-25T02:57:22.501Z,100.00
2023-02-25T02:58:35.347Z,100.00
2023-02-25T02:59:42.934Z,100.00
2023-02-25T03:00:49.498Z,100.00
2023-02-25T03:01:57.166Z,100.00
2023-02-25T03:03:07.228Z,100.00
2023-02-25T03:04:14.182Z,100.00
2023-02-25T03:05:17.585Z,100.00
2023-02-25T03:06:23.613Z,100.00
2023-02-25T03:07:26.146Z,100.00
2023-02-25T03:08:31.847Z,100.00
2023-02-25T03:09:41.032Z,100.00
2023-02-25T03:10:42.907Z,100.00
2023-02-25T03:11:44.839Z,100.00
2023-02-25T03:12:46.403Z,100.00
2023-02-25T03:13:48.327Z,100.00
2023-02-25T03:14:49.971Z,100.00
2023-02-25T03:15:53.041Z,100.00
2023-02-25T03:17:20.013Z,100.00
2023-02-25T03:18:49.537Z,100.00
2023-02-25T03:20:00.013Z,100.00
2023-02-25T03:21:07.112Z,100.00
2023-02-25T03:22:15.357Z,100.00
2023-02-25T03:23:28.732Z,100.00
2023-02-25T03:24:39.458Z,100.00
2023-02-25T03:25:54.344Z,97.87
2023-02-25T03:26:56.205Z,98.54
2023-02-25T03:28:05.693Z,97.62
2023-02-25T03:29:07.337Z,97.30
2023-02-25T03:30:15.153Z,96.76
2023-02-25T03:31:25.451Z,97.29
2023-02-25T03:32:29.058Z,96.34
2023-02-25T03:33:41.008Z,95.27
2023-02-25T03:34:46.724Z,95.51
2023-02-25T03:35:49.770Z,93.96
2023-02-25T03:37:00.065Z,93.45
2023-02-25T03:38:11.725Z,92.96
2023-02-25T03:39:20.946Z,92.40
2023-02-25T03:40:24.162Z,92.59
2023-02-25T03:41:31.491Z,92.42
2023-02-25T03:42:34.989Z,91.44
2023-02-25T03:43:43.892Z,91.43
2023-02-25T03:44:51.107Z,91.92
2023-02-25T03:45:54.459Z,92.01
2023-02-25T03:46:58.040Z,92.82
2023-02-25T03:48:00.182Z,91.45
2023-02-25T03:49:04.272Z,91.05
2023-02-25T03:50:12.144Z,91.70
2023-02-25T03:51:18.303Z,90.01
2023-02-25T03:52:22.878Z,89.91
2023-02-25T03:53:24.523Z,89.81
2023-02-25T03:54:27.422Z,90.24
2023-02-25T03:55:29.630Z,90.51
2023-02-25T03:56:41.491Z,90.49
2023-02-25T03:57:45.298Z,90.65
2023-02-25T03:58:46.827Z,91.12
2023-02-25T03:59:49.106Z,91.87
2023-02-25T04:00:56.092Z,91.77
2023-02-25T04:01:59.292Z,91.59
2023-02-25T04:03:01.177Z,91.81
2023-02-25T04:04:02.740Z,91.54
2023-02-25T04:05:04.554Z,91.78
2023-02-25T04:06:06.192Z,92.48
2023-02-25T04:07:07.764Z,91.92
2023-02-25T04:08:15.878Z,93.35
2023-02-25T04:09:18.337Z,96.91
2023-02-25T04:10:19.918Z,98.21
2023-02-25T04:11:21.539Z,98.07
2023-02-25T04:12:23.069Z,100.00
2023-02-25T04:13:24.655Z,100.00
2023-02-25T04:14:26.216Z,100.00
2023-02-25T04:15:29.429Z,100.00
2023-02-25T04:16:31.054Z,100.00
2023-02-25T04:17:33.514Z,100.00
2023-02-25T04:18:35.030Z,100.00
2023-02-25T04:19:36.630Z,100.00
2023-02-25T04:20:39.224Z,100.00
2023-02-25T04:21:40.854Z,100.00
2023-02-25T04:22:42.602Z,100.00
2023-02-25T04:23:44.152Z,100.00
2023-02-25T04:24:45.771Z,100.00
2023-02-25T04:25:47.335Z,100.00
2023-02-25T04:26:48.895Z,100.00
2023-02-25T04:27:50.624Z,100.00
2023-02-25T04:28:52.214Z,100.00
2023-02-25T04:29:53.805Z,100.00
2023-02-25T04:30:55.525Z,100.00
2023-02-25T04:31:57.353Z,100.00
2023-02-25T04:32:58.957Z,100.00
2023-02-25T04:34:00.557Z,100.00
2023-02-25T04:35:03.536Z,100.00
2023-02-25T04:36:05.526Z,100.00
2023-02-25T04:37:08.766Z,100.00
2023-02-25T04:38:10.928Z,100.00
2023-02-25T04:39:14.529Z,100.00
2023-02-25T04:40:19.386Z,100.00
2023-02-25T04:41:21.392Z,100.00
2023-02-25T04:42:22.947Z,100.00
2023-02-25T04:43:24.468Z,100.00
2023-02-25T04:44:26.515Z,100.00
2023-02-25T04:45:28.432Z,100.00
2023-02-25T04:46:30.513Z,100.00
2023-02-25T04:47:32.384Z,100.00
2023-02-25T04:48:33.914Z,99.95
2023-02-25T04:49:44.731Z,99.70
2023-02-25T04:50:46.283Z,98.31
2023-02-25T04:51:49.591Z,98.85
2023-02-25T04:52:51.201Z,97.72
2023-02-25T04:53:53.051Z,98.35
2023-02-25T04:54:54.567Z,97.49
2023-02-25T04:55:56.105Z,97.90
2023-02-25T04:56:57.662Z,96.78
2023-02-25T04:57:59.646Z,97.61
2023-02-25T04:59:01.223Z,97.02
2023-02-25T05:00:10.413Z,95.34
2023-02-25T05:01:12.806Z,95.55
2023-02-25T05:02:14.605Z,94.55
2023-02-25T05:03:16.216Z,94.92
2023-02-25T05:04:17.820Z,94.94
2023-02-25T05:05:19.672Z,95.27
2023-02-25T05:06:21.382Z,95.03
2023-02-25T05:07:23.156Z,94.79
2023-02-25T05:08:24.862Z,94.84
2023-02-25T05:09:26.757Z,95.37
2023-02-25T05:10:28.319Z,94.99
2023-02-25T05:11:29.865Z,94.73
2023-02-25T05:12:31.480Z,93.68
2023-02-25T05:13:33.145Z,93.64
2023-02-25T05:14:34.963Z,93.27
2023-02-25T05:15:36.483Z,92.50
2023-02-25T05:16:38.240Z,93.20
2023-02-25T05:17:40.457Z,95.41
2023-02-25T05:18:43.880Z,96.73
2023-02-25T05:19:45.411Z,97.36
2023-02-25T05:20:47.519Z,98.94
2023-02-25T05:21:50.867Z,98.61
2023-02-25T05:22:52.393Z,99.85
2023-02-25T05:23:54.267Z,100.00
2023-02-25T05:24:55.816Z,100.00
2023-02-25T05:25:58.836Z,100.00
2023-02-25T05:27:08.454Z,100.00
2023-02-25T05:28:13.062Z,100.00
2023-02-25T05:29:14.597Z,100.00
2023-02-25T05:30:16.290Z,100.00
2023-02-25T05:31:18.966Z,100.00
2023-02-25T05:32:20.709Z,100.00
2023-02-25T05:33:23.694Z,100.00
2023-02-25T05:34:25.692Z,100.00
2023-02-25T05:35:27.280Z,100.00
2023-02-25T05:36:29.683Z,100.00
2023-02-25T05:37:32.282Z,100.00
2023-02-25T05:38:34.783Z,100.00
2023-02-25T05:39:36.422Z,100.00
2023-02-25T05:40:39.788Z,100.00
2023-02-25T05:41:41.403Z,100.00
2023-02-25T05:42:42.972Z,100.00
2023-02-25T05:43:45.859Z,100.00
2023-02-25T05:44:47.435Z,100.00
2023-02-25T05:45:56.405Z,100.00
2023-02-25T05:46:57.993Z,100.00
2023-02-25T05:48:00.124Z,100.00
2023-02-25T05:49:01.891Z,100.00
2023-02-25T05:50:03.797Z,100.00
2023-02-25T05:51:08.619Z,100.00
2023-02-25T05:52:11.634Z,100.00
2023-02-25T05:53:13.217Z,100.00
2023-02-25T05:54:14.809Z,100.00
2023-02-25T05:55:16.384Z,100.00
2023-02-25T05:56:21.622Z,100.00
2023-02-25T05:57:24.155Z,100.00
2023-02-25T05:58:26.038Z,100.00
2023-02-25T05:59:27.676Z,100.00
2023-02-25T06:00:29.261Z,100.00
2023-02-25T06:01:31.761Z,100.00
2023-02-25T06:02:33.814Z,100.00
2023-02-25T06:03:35.382Z,100.00
2023-02-25T06:04:36.900Z,100.00
2023-02-25T06:05:42.228Z,100.00
2023-02-25T06:06:50.252Z,98.88
2023-02-25T06:07:51.836Z,99.58
2023-02-25T06:08:53.941Z,98.63
2023-02-25T06:10:00.012Z,98.46
2023-02-25T06:11:02.256Z,97.19
2023-02-25T06:12:04.040Z,97.72
2023-02-25T06:13:06.831Z,97.58
2023-02-25T06:14:08.362Z,97.32
2023-02-25T06:15:10.251Z,96.13
2023-02-25T06:16:11.855Z,97.10
2023-02-25T06:17:13.426Z,96.20
2023-02-25T06:18:15.024Z,95.13
2023-02-25T06:19:17.306Z,95.87
2023-02-25T06:20:19.032Z,94.72
2023-02-25T06:21:20.651Z,94.87
2023-02-25T06:22:22.672Z,95.25
2023-02-25T06:23:24.241Z,94.49
2023-02-25T06:24:25.822Z,94.20
2023-02-25T06:25:30.079Z,93.26
2023-02-25T06:26:31.786Z,92.13
2023-02-25T06:27:33.365Z,93.47
2023-02-25T06:28:36.362Z,93.00
2023-02-25T06:29:41.575Z,92.63
2023-02-25T06:30:43.206Z,92.33
2023-02-25T06:31:44.969Z,93.02
2023-02-25T06:32:46.625Z,94.95
2023-02-25T06:33:50.748Z,95.03
2023-02-25T06:34:52.293Z,95.05
2023-02-25T06:35:54.872Z,94.71
2023-02-25T06:36:56.421Z,94.18
2023-02-25T06:37:59.939Z,94.32
2023-02-25T06:39:01.700Z,94.99
2023-02-25T06:40:04.801Z,94.38
2023-02-25T06:41:15.454Z,94.70
2023-02-25T06:42:17.052Z,95.10
2023-02-25T06:43:18.635Z,93.63
2023-02-25T06:44:20.247Z,94.11
2023-02-25T06:45:21.842Z,94.00
2023-02-25T06:46:26.679Z,93.47
2023-02-25T06:47:28.565Z,93.36
2023-02-25T06:48:30.065Z,93.19
2023-02-25T06:49:31.639Z,93.26
2023-02-25T06:50:34.171Z,93.01
2023-02-25T06:51:35.710Z,93.70
2023-02-25T06:52:37.270Z,92.28
2023-02-25T06:53:40.933Z,92.16
2023-02-25T06:54:42.502Z,92.18
2023-02-25T06:55:44.090Z,91.95
2023-02-25T06:56:45.846Z,92.29
2023-02-25T06:57:47.400Z,93.81
2023-02-25T06:58:49.691Z,94.75
2023-02-25T06:59:53.268Z,94.97
2023-02-25T07:00:55.007Z,95.44
2023-02-25T07:01:56.586Z,94.88
2023-02-25T07:02:58.120Z,94.21
2023-02-25T07:03:59.888Z,93.99
2023-02-25T07:05:02.875Z,94.06
2023-02-25T07:06:05.075Z,94.39
2023-02-25T07:07:06.850Z,93.83
2023-02-25T07:08:08.453Z,95.02
2023-02-25T07:09:10.082Z,94.44
2023-02-25T07:10:12.186Z,93.75
2023-02-25T07:11:19.397Z,94.19
2023-02-25T07:12:21.028Z,94.07
2023-02-25T07:13:22.683Z,93.93
2023-02-25T07:14:24.599Z,93.05
2023-02-25T07:15:26.270Z,92.73
2023-02-25T07:16:30.046Z,91.27
2023-02-25T07:17:31.690Z,92.22
2023-02-25T07:18:33.470Z,91.79
2023-02-25T07:19:35.037Z,92.68
2023-02-25T07:20:39.196Z,92.63
2023-02-25T07:21:40.806Z,92.32
2023-02-25T07:22:42.502Z,92.46
2023-02-25T07:23:44.513Z,92.36
2023-02-25T07:24:46.123Z,92.99
2023-02-25T07:25:47.711Z,92.03
2023-02-25T07:26:49.861Z,91.94
2023-02-25T07:27:51.376Z,91.60
2023-02-25T07:28:52.933Z,90.94
2023-02-25T07:29:55.130Z,91.14
2023-02-25T07:30:56.887Z,91.13
2023-02-25T07:31:58.730Z,91.55
2023-02-25T07:33:00.419Z,91.61
2023-02-25T07:34:03.747Z,91.48
2023-02-25T07:35:05.927Z,91.83
2023-02-25T07:36:08.059Z,91.69
2023-02-25T07:37:09.580Z,92.07
2023-02-25T07:38:12.793Z,90.87
2023-02-25T07:39:14.329Z,90.89
2023-02-25T07:40:16.976Z,90.83
2023-02-25T07:41:19.552Z,90.64
2023-02-25T07:42:21.107Z,89.76
2023-02-25T07:43:22.638Z,89.73
2023-02-25T07:44:24.269Z,90.16
2023-02-25T07:45:25.903Z,91.04
2023-02-25T07:46:27.891Z,90.99
2023-02-25T07:47:29.451Z,90.27
2023-02-25T07:48:32.091Z,90.22
2023-02-25T07:49:33.668Z,90.13
2023-02-25T07:50:36.398Z,89.88
2023-02-25T07:51:38.181Z,90.25
2023-02-25T07:52:39.979Z,89.64
2023-02-25T07:53:41.563Z,89.90
2023-02-25T07:54:43.131Z,90.22
2023-02-25T07:55:45.301Z,89.40
2023-02-25T07:56:47.480Z,89.15
2023-02-25T07:57:49.044Z,88.30
2023-02-25T07:58:50.692Z,88.49
2023-02-25T07:59:52.284Z,87.74
2023-02-25T08:00:54.109Z,88.41
2023-02-25T08:01:55.662Z,88.22
2023-02-25T08:02:57.330Z,88.82
2023-02-25T08:04:04.243Z,89.03
2023-02-25T08:05:07.194Z,88.77
2023-02-25T08:06:09.131Z,88.11
2023-02-25T08:07:10.696Z,88.17
2023-02-25T08:08:13.190Z,88.22
2023-02-25T08:09:15.817Z,88.02
2023-02-25T08:10:17.704Z,88.33
2023-02-25T08:11:21.038Z,87.13
2023-02-25T08:12:23.145Z,87.80
2023-02-25T08:13:24.752Z,87.51
2023-02-25T08:14:26.378Z,86.35
2023-02-25T08:15:27.978Z,85.80
2023-02-25T08:16:29.529Z,86.53
2023-02-25T08:17:34.922Z,86.22
2023-02-25T08:18:37.362Z,85.14
2023-02-25T08:19:39.680Z,85.37
2023-02-25T08:20:47.259Z,84.90
2023-02-25T08:21:48.871Z,84.33
2023-02-25T08:22:50.520Z,84.40
2023-02-25T08:23:53.502Z,84.19
2023-02-25T08:24:55.037Z,84.66
2023-02-25T08:25:58.815Z,83.52
2023-02-25T08:27:00.408Z,82.17
2023-02-25T08:28:02.253Z,82.92
2023-02-25T08:29:04.801Z,83.84
2023-02-25T08:30:08.703Z,84.36
2023-02-25T08:31:12.199Z,83.55
2023-02-25T08:32:14.005Z,83.99
2023-02-25T08:33:16.010Z,83.86
2023-02-25T08:34:18.587Z,82.90
2023-02-25T08:35:20.136Z,84.13
2023-02-25T08:36:24.746Z,83.58
2023-02-25T08:37:26.883Z,83.25
2023-02-25T08:38:28.589Z,83.04
2023-02-25T08:39:31.156Z,83.86
2023-02-25T08:40:33.092Z,83.54
2023-02-25T08:41:34.742Z,83.31
2023-02-25T08:42:37.279Z,83.38
2023-02-25T08:43:40.984Z,83.06
2023-02-25T08:44:42.707Z,82.00
2023-02-25T08:45:44.334Z,82.17
2023-02-25T08:46:46.489Z,80.93
2023-02-25T08:47:48.112Z,80.31
2023-02-25T08:48:50.662Z,82.38
2023-02-25T08:49:52.561Z,82.10
2023-02-25T08:50:55.609Z,81.50
2023-02-25T08:51:57.529Z,81.79
2023-02-25T08:52:59.294Z,80.90
2023-02-25T08:54:06.854Z,81.33
2023-02-25T08:55:08.942Z,81.98
2023-02-25T08:56:12.949Z,80.77
2023-02-25T08:57:14.487Z,80.44
2023-02-25T08:58:16.038Z,80.93
2023-02-25T08:59:17.773Z,80.54
2023-02-25T09:00:21.312Z,80.21
2023-02-25T09:01:23.781Z,80.71
2023-02-25T09:02:25.639Z,80.71
2023-02-25T09:03:27.395Z,80.78
2023-02-25T09:04:29.239Z,81.02
2023-02-25T09:05:30.891Z,79.95
2023-02-25T09:06:34.011Z,79.48
2023-02-25T09:07:35.626Z,78.55
2023-02-25T09:08:37.169Z,78.99
2023-02-25T09:09:38.678Z,78.67
2023-02-25T09:10:49.945Z,77.89
2023-02-25T09:11:55.715Z,78.52
2023-02-25T09:12:57.238Z,79.36
2023-02-25T09:13:59.275Z,78.01
2023-02-25T09:15:00.920Z,77.53
2023-02-25T09:16:02.895Z,78.57
2023-02-25T09:17:06.270Z,79.21
2023-02-25T09:18:07.808Z,78.85
2023-02-25T09:19:10.850Z,78.94
2023-02-25T09:20:12.468Z,77.33
2023-02-25T09:21:14.685Z,78.32
2023-02-25T09:22:16.313Z,78.59
2023-02-25T09:23:18.076Z,78.44
2023-02-25T09:24:19.780Z,77.79
2023-02-25T09:25:21.656Z,78.63
2023-02-25T09:26:23.234Z,77.21
2023-02-25T09:27:24.806Z,77.65
2023-02-25T09:28:26.325Z,77.20
2023-02-25T09:29:27.884Z,76.78
2023-02-25T09:30:29.427Z,77.33
2023-02-25T09:31:33.700Z,77.34
2023-02-25T09:32:35.470Z,78.17
2023-02-25T09:33:37.936Z,78.65
2023-02-25T09:34:39.463Z,77.72
2023-02-25T09:35:41.854Z,76.73
2023-02-25T09:36:43.467Z,77.01
2023-02-25T09:37:45.042Z,77.05
2023-02-25T09:38:48.463Z,76.69
2023-02-25T09:39:50.173Z,76.52
2023-02-25T09:40:51.896Z,76.90
2023-02-25T09:41:57.830Z,75.58
2023-02-25T09:43:09.101Z,75.73
2023-02-25T09:44:36.292Z,75.40
2023-02-25T09:45:38.240Z,75.27
2023-02-25T09:46:49.921Z,74.63
2023-02-25T09:48:06.421Z,74.04
2023-02-25T09:49:19.044Z,73.39
2023-02-25T09:50:27.491Z,74.83
2023-02-25T09:51:40.411Z,73.56
2023-02-25T09:52:47.122Z,73.58
2023-02-25T09:54:01.295Z,72.83
2023-02-25T09:55:19.789Z,72.86
2023-02-25T09:56:26.599Z,73.82
2023-02-25T09:57:29.623Z,73.26
2023-02-25T09:58:40.893Z,72.73
2023-02-25T09:59:42.477Z,72.65
2023-02-25T10:00:55.545Z,72.68
2023-02-25T10:02:02.808Z,71.76
2023-02-25T10:03:14.609Z,72.18
2023-02-25T10:04:28.843Z,72.62
2023-02-25T10:06:05.856Z,72.33
2023-02-25T10:07:22.778Z,71.25
2023-02-25T10:08:33.137Z,70.28
2023-02-25T10:09:59.068Z,70.48
2023-02-25T10:11:10.255Z,71.49
2023-02-25T10:12:23.061Z,71.27
2023-02-25T10:13:43.099Z,70.81
2023-02-25T10:15:21.986Z,69.41
2023-02-25T10:16:43.506Z,70.29
2023-02-25T10:18:06.303Z,68.85
2023-02-25T10:19:40.869Z,69.10
2023-02-25T10:20:57.868Z,69.54
2023-02-25T10:22:07.455Z,68.52
2023-02-25T10:23:35.472Z,68.43
2023-02-25T10:24:45.684Z,66.10
2023-02-25T10:25:53.068Z,65.85
2023-02-25T10:27:30.298Z,65.76
2023-02-25T10:28:35.893Z,66.75
2023-02-25T10:29:42.637Z,66.21
2023-02-25T10:31:03.934Z,66.02
2023-02-25T10:32:33.977Z,65.97
2023-02-25T10:33:38.271Z,66.22
2023-02-25T10:34:39.812Z,66.04
2023-02-25T10:35:42.910Z,65.26
2023-02-25T10:36:52.118Z,64.27
2023-02-25T10:37:53.707Z,64.42
2023-02-25T10:38:55.363Z,65.57
2023-02-25T10:39:59.363Z,63.87
2023-02-25T10:41:01.139Z,62.86
2023-02-25T10:42:03.193Z,64.22
2023-02-25T10:43:20.247Z,63.30
2023-02-25T10:44:21.868Z,63.24
2023-02-25T10:45:30.157Z,63.02
2023-02-25T10:46:45.518Z,63.49
2023-02-25T10:47:52.349Z,60.03
2023-02-25T10:48:58.306Z,60.38
2023-02-25T10:50:44.539Z,60.32
2023-02-25T10:52:14.247Z,61.93
2023-02-25T10:53:18.062Z,61.22
2023-02-25T10:54:24.184Z,61.06
2023-02-25T10:55:43.922Z,61.03
2023-02-25T10:56:47.211Z,61.23
2023-02-25T10:57:50.496Z,59.94
2023-02-25T10:59:06.930Z,59.91
2023-02-25T11:00:31.060Z,60.26
2023-02-25T11:01:39.628Z,60.59
2023-02-25T11:02:43.622Z,59.89
2023-02-25T11:04:06.543Z,59.75
2023-02-25T11:05:42.123Z,61.92
2023-02-25T11:06:44.644Z,60.76
2023-02-25T11:07:48.730Z,60.16
2023-02-25T11:08:52.276Z,60.79
2023-02-25T11:10:19.745Z,58.03
2023-02-25T11:11:24.398Z,58.84
2023-02-25T11:12:26.067Z,59.00
2023-02-25T11:13:30.200Z,57.96
2023-02-25T11:14:34.417Z,57.51
2023-02-25T11:15:45.216Z,57.33
2023-02-25T11:16:47.577Z,57.68
2023-02-25T11:17:49.195Z,57.29
2023-02-25T11:18:54.598Z,57.17
2023-02-25T11:20:01.712Z,57.80
2023-02-25T11:21:07.355Z,58.56
2023-02-25T11:22:37.459Z,58.02
2023-02-25T11:23:48.049Z,58.75
2023-02-25T11:25:01.427Z,56.94
2023-02-25T11:26:04.340Z,57.45
2023-02-25T11:27:07.864Z,57.49
2023-02-25T11:28:22.682Z,57.19
2023-02-25T11:29:32.302Z,57.50
2023-02-25T11:30:40.062Z,56.01
2023-02-25T11:31:43.665Z,56.49
2023-02-25T11:32:55.316Z,56.08
2023-02-25T11:33:59.706Z,56.53
2023-02-25T11:35:08.915Z,57.49
2023-02-25T11:36:11.279Z,56.09
2023-02-25T11:37:37.804Z,56.73
2023-02-25T11:38:44.255Z,56.14
2023-02-25T11:39:56.244Z,56.80
2023-02-25T11:40:57.871Z,57.12
2023-02-25T11:42:17.998Z,56.97
2023-02-25T11:44:39.877Z,57.07
2023-02-25T11:45:54.330Z,56.66
2023-02-25T11:46:59.081Z,56.58
2023-02-25T11:48:05.368Z,56.50
2023-02-25T11:49:09.755Z,56.62
2023-02-25T11:50:35.538Z,56.50
2023-02-25T11:51:52.147Z,56.88
2023-02-25T11:53:17.145Z,56.40
2023-02-25T11:54:42.150Z,56.75
2023-02-25T11:55:46.567Z,56.51
2023-02-25T11:56:56.181Z,57.11
2023-02-25T11:58:15.061Z,56.78
2023-02-25T11:59:37.801Z,57.18
2023-02-25T12:01:00.984Z,56.91
2023-02-25T12:02:27.871Z,56.83
2023-02-25T12:03:35.202Z,57.00
2023-02-25T12:04:45.861Z,56.43
2023-02-25T12:06:00.017Z,56.98
2023-02-25T12:07:20.624Z,57.07
2023-02-25T12:08:37.817Z,57.51
2023-02-25T12:09:58.030Z,57.06
2023-02-25T12:11:44.004Z,57.42
2023-02-25T12:13:07.075Z,57.72
2023-02-25T12:14:25.735Z,57.87
2023-02-25T12:16:15.161Z,58.17
2023-02-25T12:17:53.973Z,57.56
2023-02-25T12:19:21.677Z,58.20
2023-02-25T12:20:23.199Z,58.84
2023-02-25T12:21:50.023Z,59.42
2023-02-25T12:23:45.885Z,59.72
2023-02-25T12:24:58.984Z,60.65
2023-02-25T12:26:14.573Z,60.58
2023-02-25T12:27:36.217Z,60.14
2023-02-25T12:28:49.884Z,61.24
2023-02-25T12:30:20.768Z,61.34
2023-02-25T12:31:34.187Z,61.24
2023-02-25T12:32:56.735Z,61.48
2023-02-25T12:34:22.813Z,61.71
2023-02-25T12:35:52.317Z,62.04
2023-02-25T12:37:12.776Z,62.29
2023-02-25T12:38:41.964Z,62.42
2023-02-25T12:40:21.704Z,61.89
2023-02-25T12:41:45.776Z,62.37
2023-02-25T12:43:01.060Z,62.39
2023-02-25T12:44:17.816Z,62.81
2023-02-25T12:45:40.981Z,62.96
2023-02-25T12:47:02.061Z,63.20
2023-02-25T12:48:09.287Z,62.53
2023-02-25T12:49:31.009Z,62.97
2023-02-25T12:50:50.937Z,62.19
2023-02-25T12:52:10.957Z,62.51
2023-02-25T12:53:18.631Z,61.99
2023-02-25T12:54:59.430Z,62.51
2023-02-25T12:56:28.984Z,62.24
2023-02-25T12:58:02.905Z,61.72
2023-02-25T12:59:39.940Z,61.21
2023-02-25T13:01:23.285Z,61.58
2023-02-25T13:02:54.483Z,61.58
2023-02-25T13:04:03.676Z,61.98
2023-02-25T13:05:51.199Z,62.15
2023-02-25T13:07:14.397Z,62.28
2023-02-25T13:08:32.532Z,61.86
2023-02-25T13:10:01.228Z,61.97
2023-02-25T13:11:21.627Z,62.44
2023-02-25T13:12:38.266Z,62.15
2023-02-25T13:13:42.783Z,62.47
2023-02-25T13:14:56.140Z,62.69
2023-02-25T13:16:15.754Z,62.44
2023-02-25T13:17:46.401Z,62.52
2023-02-25T13:19:15.060Z,61.77
2023-02-25T13:20:36.483Z,61.61
2023-02-25T13:22:08.953Z,61.43
2023-02-25T13:23:45.529Z,61.74
2023-02-25T13:25:04.495Z,61.90
2023-02-25T13:26:44.264Z,62.16
2023-02-25T13:28:30.534Z,61.64
2023-02-25T13:29:56.699Z,61.70
2023-02-25T13:31:13.423Z,61.56
2023-02-25T13:32:52.369Z,61.75
2023-02-25T13:34:08.663Z,61.03
2023-02-25T13:35:19.362Z,61.49
2023-02-25T13:36:26.903Z,61.50
2023-02-25T13:37:28.425Z,61.36
2023-02-25T13:38:41.818Z,61.59
2023-02-25T13:39:55.430Z,61.50
2023-02-25T13:41:06.142Z,61.87
2023-02-25T13:42:38.857Z,61.51
2023-02-25T13:44:09.746Z,62.47
2023-02-25T13:45:30.194Z,62.66
2023-02-25T13:46:52.806Z,64.00
2023-02-25T13:47:54.416Z,64.19
2023-02-25T13:49:02.838Z,63.69
2023-02-25T13:50:15.323Z,64.20
2023-02-25T13:51:34.617Z,64.33
2023-02-25T13:53:00.443Z,64.98
2023-02-25T13:54:20.842Z,65.15
2023-02-25T13:55:59.651Z,65.55
2023-02-25T13:57:46.212Z,65.97
2023-02-25T13:59:02.607Z,66.48
2023-02-25T14:00:09.857Z,66.77
2023-02-25T14:01:35.900Z,66.86
2023-02-25T14:03:05.065Z,66.57
2023-02-25T14:04:21.665Z,67.37
2023-02-25T14:06:04.752Z,66.86
2023-02-25T14:07:37.033Z,67.35
2023-02-25T14:08:53.524Z,67.25
2023-02-25T14:10:16.753Z,67.02
2023-02-25T14:12:06.322Z,67.10
2023-02-25T14:13:53.235Z,66.82
2023-02-25T14:15:18.613Z,66.27
2023-02-25T14:16:37.348Z,65.96
2023-02-25T14:18:11.079Z,66.18
2023-02-25T14:19:15.540Z,66.12
2023-02-25T14:20:35.989Z,66.23
2023-02-25T14:22:08.507Z,66.37
2023-02-25T14:23:24.799Z,65.91
2023-02-25T14:24:38.719Z,65.90
2023-02-25T14:25:49.420Z,65.45
2023-02-25T14:26:57.368Z,65.43
2023-02-25T14:28:40.804Z,65.95
2023-02-25T14:30:04.309Z,66.49
2023-02-25T14:31:27.422Z,65.95
2023-02-25T14:32:47.393Z,65.06